createdAt,value
2016-03-04T00:00:21.650Z,17.29
2016-03-04T00:01:21.732Z,17.22
2016-03-04T00:02:21.781Z,17.23
2016-03-04T00:03:21.816Z,17.22
2016-03-04T00:04:21.865Z,17.31
2016-03-04T00:05:21.929Z,17.26
2016-03-04T00:06:21.948Z,17.33
2016-03-04T00:07:22.013Z,17.27
2016-03-04T00:08:22.079Z,17.23
2016-03-04T00:09:22.113Z,17.29
2016-03-04T00:10:22.147Z,17.23
2016-03-04T00:11:22.227Z,17.29
2016-03-04T00:12:22.262Z,17.23
2016-03-04T00:13:22.310Z,17.23
2016-03-04T00:14:22.392Z,17.3
2016-03-04T00:15:22.426Z,17.24
2016-03-04T00:16:22.490Z,17.29
2016-03-04T00:17:22.525Z,17.26
2016-03-04T00:18:22.559Z,17.24
2016-03-04T00:19:22.639Z,17.24
2016-03-04T00:20:22.689Z,17.27
2016-03-04T00:21:22.707Z,17.14
2016-03-04T00:22:22.803Z,17.26
2016-03-04T00:23:22.837Z,17.26
2016-03-04T00:24:22.887Z,17.27
2016-03-04T00:25:22.937Z,17.23
2016-03-04T00:26:23.003Z,17.16
2016-03-04T00:27:23.035Z,17.23
2016-03-04T00:28:23.086Z,17.15
2016-03-04T00:29:23.119Z,17.3
2016-03-04T00:30:23.216Z,17.2
2016-03-04T00:31:23.254Z,17.24
2016-03-04T00:32:23.262Z,17.24
2016-03-04T00:33:23.374Z,17.29
2016-03-04T00:34:23.408Z,17.23
2016-03-04T00:35:23.443Z,17.24
2016-03-04T00:36:23.492Z,17.3
2016-03-04T00:37:23.556Z,17.22
2016-03-04T00:38:23.575Z,17.31
2016-03-04T00:39:23.641Z,17.26
2016-03-04T00:40:23.690Z,17.26
2016-03-04T00:41:23.771Z,17.23
2016-03-04T00:42:23.820Z,17.23
2016-03-04T00:43:23.839Z,17.24
2016-03-04T00:44:23.903Z,17.24
2016-03-04T00:45:23.969Z,17.26
2016-03-04T00:46:23.987Z,17.23
2016-03-04T00:47:24.053Z,17.3
2016-03-04T00:48:24.103Z,17.26
2016-03-04T00:49:24.152Z,17.19
2016-03-04T00:50:24.186Z,17.24
2016-03-04T00:51:24.266Z,17.26
2016-03-04T00:52:24.301Z,17.26
2016-03-04T00:53:24.381Z,17.29
2016-03-04T00:54:24.400Z,17.15
2016-03-04T00:55:24.450Z,17.27
2016-03-04T00:56:24.515Z,17.24
2016-03-04T00:57:24.533Z,17.2
2016-03-04T00:58:24.614Z,17.26
2016-03-04T00:59:24.680Z,17.22
2016-03-04T01:00:24.729Z,17.14
2016-03-04T01:01:24.747Z,17.3
2016-03-04T01:02:24.813Z,17.22
2016-03-04T01:03:24.862Z,17.2
2016-03-04T01:04:24.927Z,17.2
2016-03-04T01:05:24.993Z,17.15
2016-03-04T01:06:24.995Z,17.2
2016-03-04T01:07:25.077Z,17.19
2016-03-04T01:08:25.110Z,17.14
2016-03-04T01:09:25.144Z,17.12
2016-03-04T01:10:25.241Z,17.19
2016-03-04T01:11:25.291Z,17.2
2016-03-04T01:12:25.308Z,17.16
2016-03-04T01:13:25.389Z,17.14
2016-03-04T01:14:25.439Z,17.12
2016-03-04T01:15:25.473Z,17.2
2016-03-04T01:16:25.554Z,17.15
2016-03-04T01:17:25.604Z,17.23
2016-03-04T01:18:25.606Z,17.2
2016-03-04T01:19:25.686Z,17.2
2016-03-04T01:20:25.721Z,17.16
2016-03-04T01:21:25.801Z,17.2
2016-03-04T01:22:25.851Z,17.2
2016-03-04T01:23:25.869Z,17.2
2016-03-04T01:24:25.934Z,17.16
2016-03-04T01:25:26.000Z,17.16
2016-03-04T01:26:26.018Z,17.19
2016-03-04T01:27:26.098Z,17.2
2016-03-04T01:28:26.164Z,17.2
2016-03-04T01:29:26.167Z,17.22
2016-03-04T01:30:26.231Z,17.11
2016-03-04T01:31:26.141Z,17.22
2016-03-04T01:32:26.347Z,17.2
2016-03-04T01:33:26.428Z,17.08
2016-03-04T01:34:26.445Z,17.15
2016-03-04T01:35:26.339Z,17.14
2016-03-04T01:36:26.544Z,17.2
2016-03-04T01:37:26.594Z,17.12
2016-03-04T01:38:26.627Z,17.09
2016-03-04T01:39:26.709Z,17.11
2016-03-04T01:40:26.743Z,17.11
2016-03-04T01:41:26.777Z,17.22
2016-03-04T01:42:26.888Z,17.09
2016-03-04T01:43:26.907Z,17.11
2016-03-04T01:44:26.941Z,17.08
2016-03-04T01:45:27.022Z,17.11
2016-03-04T01:46:27.057Z,17.08
2016-03-04T01:47:27.090Z,17.09
2016-03-04T01:48:27.155Z,17.08
2016-03-04T01:49:27.221Z,17.08
2016-03-04T01:50:27.254Z,17.12
2016-03-04T01:51:27.303Z,17.2
2016-03-04T01:52:27.385Z,17.11
2016-03-04T01:53:27.388Z,17.06
2016-03-04T01:54:27.437Z,17.15
2016-03-04T01:55:27.533Z,17.19
2016-03-04T01:56:27.551Z,17.08
2016-03-04T01:57:27.632Z,17.11
2016-03-04T01:58:27.650Z,17.11
2016-03-04T01:59:27.700Z,17.11
2016-03-04T02:00:27.781Z,17.11
2016-03-04T02:01:27.800Z,17.14
2016-03-04T02:02:27.849Z,17.08
2016-03-04T02:03:27.931Z,17.06
2016-03-04T02:04:27.964Z,17.12
2016-03-04T02:05:27.889Z,17.05
2016-03-04T02:06:28.094Z,17.15
2016-03-04T02:07:28.112Z,17.11
2016-03-04T02:08:28.146Z,17.12
2016-03-04T02:09:28.227Z,17.12
2016-03-04T02:10:28.245Z,17.12
2016-03-04T02:11:28.341Z,17.15
2016-03-04T02:12:28.204Z,17.12
2016-03-04T02:13:28.393Z,17.12
2016-03-04T02:14:28.490Z,17.05
2016-03-04T02:15:28.555Z,17.05
2016-03-04T02:16:28.558Z,17.11
2016-03-04T02:17:28.639Z,17.06
2016-03-04T02:18:28.688Z,17.12
2016-03-04T02:19:28.738Z,17.12
2016-03-04T02:20:28.803Z,17.14
2016-03-04T02:21:28.853Z,17.02
2016-03-04T02:22:28.870Z,16.99
2016-03-04T02:23:28.936Z,17.09
2016-03-04T02:24:28.970Z,17.09
2016-03-04T02:25:29.051Z,17.01
2016-03-04T02:26:29.116Z,16.94
2016-03-04T02:27:29.139Z,16.99
2016-03-04T02:28:29.188Z,17.09
2016-03-04T02:29:29.254Z,17.11
2016-03-04T02:30:29.272Z,17.02
2016-03-04T02:31:29.338Z,17.09
2016-03-04T02:32:29.402Z,17.02
2016-03-04T02:33:29.421Z,17.04
2016-03-04T02:34:29.471Z,16.97
2016-03-04T02:35:29.552Z,16.99
2016-03-04T02:36:29.601Z,16.97
2016-03-04T02:37:29.666Z,16.99
2016-03-04T02:38:29.699Z,16.99
2016-03-04T02:39:29.734Z,16.99
2016-03-04T02:40:29.830Z,16.99
2016-03-04T02:41:29.817Z,17.01
2016-03-04T02:42:29.882Z,17.06
2016-03-04T02:43:29.963Z,16.99
2016-03-04T02:44:29.981Z,17.02
2016-03-04T02:45:30.031Z,17.05
2016-03-04T02:46:30.112Z,17.06
2016-03-04T02:47:30.161Z,17.05
2016-03-04T02:48:30.211Z,16.99
2016-03-04T02:49:30.229Z,17.09
2016-03-04T02:50:30.295Z,17.02
2016-03-04T02:51:30.375Z,17.01
2016-03-04T02:52:30.394Z,16.96
2016-03-04T02:53:30.458Z,16.96
2016-03-04T02:54:30.524Z,16.99
2016-03-04T02:55:30.558Z,17.11
2016-03-04T02:56:30.592Z,16.97
2016-03-04T02:57:30.673Z,17.12
2016-03-04T02:58:30.753Z,16.99
2016-03-04T02:59:30.741Z,17.02
2016-03-04T03:00:30.822Z,16.99
2016-03-04T03:01:30.841Z,17.02
2016-03-04T03:02:30.921Z,17.01
2016-03-04T03:03:30.971Z,17.01
2016-03-04T03:04:31.004Z,16.97
2016-03-04T03:05:31.069Z,16.99
2016-03-04T03:06:31.134Z,17.09
2016-03-04T03:07:31.152Z,17.02
2016-03-04T03:08:31.234Z,16.97
2016-03-04T03:09:31.268Z,17.02
2016-03-04T03:10:31.349Z,16.97
2016-03-04T03:11:31.367Z,17.01
2016-03-04T03:12:31.431Z,17.04
2016-03-04T03:13:31.465Z,17.01
2016-03-04T03:14:31.547Z,17.02
2016-03-04T03:15:31.549Z,16.94
2016-03-04T03:16:31.614Z,16.97
2016-03-04T03:17:31.679Z,16.96
2016-03-04T03:18:31.729Z,17.04
2016-03-04T03:19:31.778Z,17.08
2016-03-04T03:20:31.828Z,17.04
2016-03-04T03:21:31.878Z,17.08
2016-03-04T03:22:31.928Z,17.05
2016-03-04T03:23:32.024Z,17.09
2016-03-04T03:24:32.042Z,17.02
2016-03-04T03:25:32.091Z,17.01
2016-03-04T03:26:32.157Z,17.06
2016-03-04T03:27:32.239Z,17.08
2016-03-04T03:28:32.241Z,16.97
2016-03-04T03:29:32.337Z,17.02
2016-03-04T03:30:32.371Z,17.02
2016-03-04T03:31:32.405Z,16.99
2016-03-04T03:32:32.438Z,16.94
2016-03-04T03:33:32.504Z,17.02
2016-03-04T03:34:32.554Z,16.97
2016-03-04T03:35:32.603Z,17.02
2016-03-04T03:36:32.668Z,16.96
2016-03-04T03:37:32.702Z,16.94
2016-03-04T03:38:32.751Z,17.01
2016-03-04T03:39:32.817Z,16.94
2016-03-04T03:40:32.867Z,17.02
2016-03-04T03:41:32.916Z,16.94
2016-03-04T03:42:32.966Z,16.96
2016-03-04T03:43:32.999Z,16.93
2016-03-04T03:44:33.112Z,16.87
2016-03-04T03:45:33.098Z,16.93
2016-03-04T03:46:33.148Z,16.97
2016-03-04T03:47:33.229Z,16.94
2016-03-04T03:48:33.263Z,16.93
2016-03-04T03:49:33.345Z,16.93
2016-03-04T03:50:33.378Z,16.83
2016-03-04T03:51:33.427Z,16.86
2016-03-04T03:52:33.461Z,16.84
2016-03-04T03:53:33.527Z,16.97
2016-03-04T03:54:33.560Z,16.83
2016-03-04T03:55:33.625Z,16.94
2016-03-04T03:56:33.691Z,16.83
2016-03-04T03:57:33.725Z,16.94
2016-03-04T03:58:33.774Z,16.89
2016-03-04T03:59:33.824Z,16.96
2016-03-04T04:00:33.858Z,16.87
2016-03-04T04:01:33.938Z,16.87
2016-03-04T04:02:33.988Z,16.84
2016-03-04T04:03:34.022Z,16.89
2016-03-04T04:04:34.071Z,16.87
2016-03-04T04:05:34.105Z,16.89
2016-03-04T04:06:34.202Z,16.9
2016-03-04T04:07:34.236Z,16.87
2016-03-04T04:08:34.271Z,16.86
2016-03-04T04:09:34.335Z,16.86
2016-03-04T04:10:34.385Z,16.83
2016-03-04T04:11:34.449Z,16.87
2016-03-04T04:12:34.484Z,16.87
2016-03-04T04:13:34.533Z,16.81
2016-03-04T04:14:34.568Z,16.87
2016-03-04T04:15:34.633Z,16.84
2016-03-04T04:16:34.682Z,16.86
2016-03-04T04:17:34.732Z,16.86
2016-03-04T04:18:34.797Z,16.79
2016-03-04T04:19:34.846Z,16.86
2016-03-04T04:20:34.895Z,16.86
2016-03-04T04:21:34.946Z,16.81
2016-03-04T04:22:34.979Z,16.81
2016-03-04T04:23:35.045Z,16.76
2016-03-04T04:24:35.109Z,16.84
2016-03-04T04:25:35.128Z,16.83
2016-03-04T04:26:35.177Z,16.79
2016-03-04T04:27:35.243Z,16.83
2016-03-04T04:28:35.293Z,16.81
2016-03-04T04:29:35.342Z,16.76
2016-03-04T04:30:35.422Z,16.75
2016-03-04T04:31:35.457Z,16.84
2016-03-04T04:32:35.491Z,16.75
2016-03-04T04:33:35.524Z,16.76
2016-03-04T04:34:35.590Z,16.76
2016-03-04T04:35:35.686Z,16.74
2016-03-04T04:36:35.736Z,16.79
2016-03-04T04:37:34.988Z,16.76
2016-03-04T04:38:35.804Z,16.86
2016-03-04T04:39:35.853Z,16.76
2016-03-04T04:40:35.902Z,16.76
2016-03-04T04:41:35.968Z,16.79
2016-03-04T04:42:36.001Z,16.78
2016-03-04T04:43:36.052Z,16.81
2016-03-04T04:44:36.085Z,16.74
2016-03-04T04:45:36.135Z,16.81
2016-03-04T04:46:36.200Z,16.74
2016-03-04T04:47:36.266Z,16.86
2016-03-04T04:48:36.299Z,16.76
2016-03-04T04:49:36.365Z,16.79
2016-03-04T04:50:36.414Z,16.81
2016-03-04T04:51:36.479Z,16.83
2016-03-04T04:52:36.512Z,16.76
2016-03-04T04:53:36.620Z,16.79
2016-03-04T04:54:36.715Z,16.71
2016-03-04T04:55:36.645Z,16.74
2016-03-04T04:56:36.914Z,16.79
2016-03-04T04:57:36.760Z,16.86
2016-03-04T04:58:36.841Z,16.83
2016-03-04T04:59:36.843Z,16.76
2016-03-04T05:00:36.909Z,16.81
2016-03-04T05:01:36.958Z,16.76
2016-03-04T05:02:36.992Z,16.74
2016-03-04T05:03:37.058Z,16.79
2016-03-04T05:04:37.123Z,16.83
2016-03-04T05:05:37.173Z,16.78
2016-03-04T05:06:37.206Z,16.79
2016-03-04T05:07:37.271Z,16.76
2016-03-04T05:08:37.321Z,16.74
2016-03-04T05:09:37.356Z,16.71
2016-03-04T05:10:37.436Z,16.72
2016-03-04T05:11:37.470Z,16.74
2016-03-04T05:12:37.534Z,16.79
2016-03-04T05:13:37.569Z,16.72
2016-03-04T05:14:37.618Z,16.71
2016-03-04T05:15:37.668Z,16.75
2016-03-04T05:16:37.734Z,16.74
2016-03-04T05:17:37.783Z,16.74
2016-03-04T05:18:37.833Z,16.71
2016-03-04T05:19:37.866Z,16.74
2016-03-04T05:20:37.931Z,16.72
2016-03-04T05:21:37.966Z,16.66
2016-03-04T05:22:38.062Z,16.66
2016-03-04T05:23:38.064Z,16.75
2016-03-04T05:24:38.130Z,16.72
2016-03-04T05:25:38.179Z,16.72
2016-03-04T05:26:38.213Z,16.72
2016-03-04T05:27:38.293Z,16.71
2016-03-04T05:28:38.344Z,16.75
2016-03-04T05:29:38.394Z,16.71
2016-03-04T05:30:38.412Z,16.71
2016-03-04T05:31:38.477Z,16.74
2016-03-04T05:32:38.510Z,16.76
2016-03-04T05:33:38.591Z,16.66
2016-03-04T05:34:38.641Z,16.72
2016-03-04T05:35:38.690Z,16.72
2016-03-04T05:36:38.568Z,16.71
2016-03-04T05:37:38.821Z,16.71
2016-03-04T05:38:38.823Z,16.71
2016-03-04T05:39:38.904Z,16.83
2016-03-04T05:40:38.922Z,16.72
2016-03-04T05:41:38.988Z,16.66
2016-03-04T05:42:39.038Z,16.65
2016-03-04T05:43:39.103Z,16.75
2016-03-04T05:44:39.137Z,16.65
2016-03-04T05:45:39.186Z,16.65
2016-03-04T05:46:39.251Z,16.68
2016-03-04T05:47:39.285Z,16.66
2016-03-04T05:48:39.335Z,16.66
2016-03-04T05:49:39.384Z,16.68
2016-03-04T05:50:39.434Z,16.68
2016-03-04T05:51:39.499Z,16.65
2016-03-04T05:52:39.517Z,16.66
2016-03-04T05:53:39.613Z,16.72
2016-03-04T05:54:39.664Z,16.65
2016-03-04T05:55:39.697Z,16.69
2016-03-04T05:56:39.747Z,16.68
2016-03-04T05:57:39.813Z,16.72
2016-03-04T05:58:39.877Z,16.66
2016-03-04T05:59:39.896Z,16.66
2016-03-04T06:00:39.945Z,16.71
2016-03-04T06:01:40.010Z,16.69
2016-03-04T06:02:40.044Z,16.64
2016-03-04T06:03:40.079Z,16.66
2016-03-04T06:04:40.144Z,16.68
2016-03-04T06:05:40.209Z,16.68
2016-03-04T06:06:40.243Z,16.75
2016-03-04T06:07:40.273Z,16.66
2016-03-04T06:08:40.358Z,16.66
2016-03-04T06:09:40.364Z,16.66
2016-03-04T06:10:40.447Z,16.71
2016-03-04T06:11:40.437Z,16.65
2016-03-04T06:12:40.491Z,16.69
2016-03-04T06:13:40.379Z,16.58
2016-03-04T06:14:40.565Z,16.61
2016-03-04T06:15:40.626Z,16.58
2016-03-04T06:16:40.671Z,16.65
2016-03-04T06:17:40.717Z,16.69
2016-03-04T06:18:40.749Z,16.72
2016-03-04T06:19:40.829Z,16.66
2016-03-04T06:20:40.861Z,16.69
2016-03-04T06:21:40.893Z,16.74
2016-03-04T06:22:40.988Z,16.58
2016-03-04T06:23:40.255Z,16.69
2016-03-04T06:24:41.054Z,16.71
2016-03-04T06:25:41.150Z,16.68
2016-03-04T06:26:41.152Z,16.61
2016-03-04T06:27:41.217Z,16.56
2016-03-04T06:28:41.345Z,16.69
2016-03-04T06:29:41.301Z,16.6
2016-03-04T06:30:41.382Z,16.66
2016-03-04T06:31:41.399Z,16.65
2016-03-04T06:32:41.449Z,16.68
2016-03-04T06:33:41.529Z,16.61
2016-03-04T06:34:41.564Z,16.69
2016-03-04T06:35:41.645Z,16.58
2016-03-04T06:36:41.663Z,16.58
2016-03-04T06:37:41.728Z,16.66
2016-03-04T06:38:41.747Z,16.58
2016-03-04T06:39:41.828Z,16.49
2016-03-04T06:40:41.861Z,16.53
2016-03-04T06:41:41.958Z,16.47
2016-03-04T06:42:41.976Z,16.53
2016-03-04T06:43:42.026Z,16.51
2016-03-04T06:44:42.059Z,16.5
2016-03-04T06:45:42.141Z,16.57
2016-03-04T06:46:42.158Z,16.51
2016-03-04T06:47:42.224Z,16.61
2016-03-04T06:48:42.273Z,16.57
2016-03-04T06:49:42.308Z,16.58
2016-03-04T06:50:42.373Z,16.5
2016-03-04T06:51:42.422Z,16.57
2016-03-04T06:52:42.456Z,16.58
2016-03-04T06:53:42.505Z,16.57
2016-03-04T06:54:42.571Z,16.61
2016-03-04T06:55:42.636Z,16.56
2016-03-04T06:56:42.685Z,16.6
2016-03-04T06:57:42.719Z,16.57
2016-03-04T06:58:42.769Z,16.53
2016-03-04T06:59:42.834Z,16.6
2016-03-04T07:00:42.884Z,16.56
2016-03-04T07:01:42.933Z,16.65
2016-03-04T07:02:42.983Z,16.71
2016-03-04T07:03:43.017Z,16.6
2016-03-04T07:04:43.082Z,16.61
2016-03-04T07:05:42.991Z,16.64
2016-03-04T07:06:43.198Z,16.68
2016-03-04T07:07:43.215Z,16.75
2016-03-04T07:08:43.280Z,16.64
2016-03-04T07:09:43.330Z,16.64
2016-03-04T07:10:43.208Z,16.66
2016-03-04T07:11:43.429Z,16.68
2016-03-04T07:12:43.479Z,16.68
2016-03-04T07:13:43.529Z,16.69
2016-03-04T07:14:43.578Z,16.46
2016-03-04T07:15:43.486Z,16.42
2016-03-04T07:16:43.677Z,16.2
2016-03-04T07:17:43.742Z,15.92
2016-03-04T07:18:43.775Z,15.86
2016-03-04T07:19:43.841Z,15.61
2016-03-04T07:20:43.875Z,15.46
2016-03-04T07:21:43.956Z,15.42
2016-03-04T07:22:43.974Z,15.22
2016-03-04T07:23:44.055Z,15.07
2016-03-04T07:24:44.074Z,14.94
2016-03-04T07:25:44.123Z,14.88
2016-03-04T07:26:44.204Z,14.7
2016-03-04T07:27:44.237Z,14.68
2016-03-04T07:28:44.287Z,14.58
2016-03-04T07:29:44.337Z,14.48
2016-03-04T07:30:44.386Z,14.47
2016-03-04T07:31:44.436Z,14.37
2016-03-04T07:32:44.485Z,14.33
2016-03-04T07:33:44.535Z,14.26
2016-03-04T07:34:44.601Z,14.1
2016-03-04T07:35:44.634Z,14.08
2016-03-04T07:36:44.684Z,14.04
2016-03-04T07:37:44.748Z,13.96
2016-03-04T07:38:44.799Z,13.96
2016-03-04T07:39:44.832Z,14
2016-03-04T07:40:44.898Z,14.1
2016-03-04T07:41:44.947Z,14.18
2016-03-04T07:42:44.965Z,14.23
2016-03-04T07:43:45.031Z,14.3
2016-03-04T07:44:45.080Z,14.4
2016-03-04T07:45:45.146Z,14.5
2016-03-04T07:46:45.195Z,14.59
2016-03-04T07:47:45.228Z,14.53
2016-03-04T07:48:45.263Z,14.65
2016-03-04T07:49:45.328Z,14.77
2016-03-04T07:50:45.361Z,14.82
2016-03-04T07:51:45.427Z,14.88
2016-03-04T07:52:45.476Z,14.85
2016-03-04T07:53:45.527Z,14.96
2016-03-04T07:54:45.576Z,15.04
2016-03-04T07:55:45.625Z,15.09
2016-03-04T07:56:45.675Z,15.06
2016-03-04T07:57:45.724Z,15.15
2016-03-04T07:58:45.758Z,15.1
2016-03-04T07:59:45.824Z,15.15
2016-03-04T08:00:45.889Z,15.18
2016-03-04T08:01:45.923Z,15.24
2016-03-04T08:02:45.972Z,15.24
2016-03-04T08:03:46.038Z,15.28
2016-03-04T08:04:46.056Z,15.29
2016-03-04T08:05:46.121Z,15.28
2016-03-04T08:06:46.155Z,15.25
2016-03-04T08:07:46.236Z,15.33
2016-03-04T08:08:46.301Z,15.31
2016-03-04T08:09:46.303Z,15.28
2016-03-04T08:10:46.354Z,15.4
2016-03-04T08:11:46.418Z,15.35
2016-03-04T08:12:46.452Z,15.39
2016-03-04T08:13:46.502Z,15.44
2016-03-04T08:14:46.567Z,15.42
2016-03-04T08:15:46.617Z,15.47
2016-03-04T08:16:46.682Z,15.44
2016-03-04T08:17:46.732Z,15.51
2016-03-04T08:18:46.781Z,15.49
2016-03-04T08:19:46.814Z,15.55
2016-03-04T08:20:46.864Z,15.57
2016-03-04T08:21:46.899Z,15.57
2016-03-04T08:22:46.980Z,15.62
2016-03-04T08:23:47.044Z,15.65
2016-03-04T08:24:47.078Z,15.67
2016-03-04T08:25:47.143Z,15.75
2016-03-04T08:26:47.177Z,15.72
2016-03-04T08:27:47.211Z,15.73
2016-03-04T08:28:47.246Z,15.79
2016-03-04T08:29:47.310Z,15.77
2016-03-04T08:30:47.344Z,15.86
2016-03-04T08:31:47.410Z,15.91
2016-03-04T08:32:46.709Z,15.95
2016-03-04T08:33:47.509Z,16
2016-03-04T08:34:47.543Z,15.95
2016-03-04T08:35:47.623Z,16.01
2016-03-04T08:36:47.657Z,16.04
2016-03-04T08:37:47.707Z,16
2016-03-04T08:38:47.788Z,16.04
2016-03-04T08:39:47.806Z,16.01
2016-03-04T08:40:47.840Z,16.09
2016-03-04T08:41:47.906Z,16.08
2016-03-04T08:42:47.955Z,16.09
2016-03-04T08:43:48.020Z,16.09
2016-03-04T08:44:48.054Z,16.12
2016-03-04T08:45:48.103Z,16.16
2016-03-04T08:46:48.153Z,16.09
2016-03-04T08:47:48.234Z,16.13
2016-03-04T08:48:48.237Z,16.16
2016-03-04T08:49:48.333Z,16.23
2016-03-04T08:50:48.383Z,16.23
2016-03-04T08:51:48.417Z,16.29
2016-03-04T08:52:48.482Z,16.23
2016-03-04T08:53:48.499Z,16.28
2016-03-04T08:54:48.534Z,16.28
2016-03-04T08:55:48.599Z,16.28
2016-03-04T08:56:48.664Z,16.24
2016-03-04T08:57:48.714Z,16.29
2016-03-04T08:58:48.748Z,16.31
2016-03-04T08:59:48.813Z,16.29
2016-03-04T09:00:48.707Z,16.32
2016-03-04T09:01:48.912Z,16.33
2016-03-04T09:02:48.946Z,16.36
2016-03-04T09:03:48.995Z,16.42
2016-03-04T09:04:49.061Z,16.41
2016-03-04T09:05:49.111Z,16.41
2016-03-04T09:06:49.145Z,16.36
2016-03-04T09:07:49.211Z,16.42
2016-03-04T09:08:49.244Z,16.46
2016-03-04T09:09:49.310Z,16.39
2016-03-04T09:10:49.360Z,16.46
2016-03-04T09:11:49.440Z,16.42
2016-03-04T09:12:49.459Z,16.42
2016-03-04T09:13:49.508Z,16.5
2016-03-04T09:14:49.542Z,16.46
2016-03-04T09:15:49.623Z,16.5
2016-03-04T09:16:49.672Z,16.5
2016-03-04T09:17:49.690Z,16.43
2016-03-04T09:18:49.771Z,16.42
2016-03-04T09:19:49.804Z,16.46
2016-03-04T09:20:49.840Z,16.53
2016-03-04T09:21:49.935Z,16.53
2016-03-04T09:22:49.970Z,16.58
2016-03-04T09:23:50.020Z,16.49
2016-03-04T09:24:50.053Z,16.6
2016-03-04T09:25:50.103Z,16.57
2016-03-04T09:26:50.153Z,16.61
2016-03-04T09:27:50.217Z,16.61
2016-03-04T09:28:50.298Z,16.53
2016-03-04T09:29:50.332Z,16.65
2016-03-04T09:30:50.366Z,16.6
2016-03-04T09:31:50.432Z,16.68
2016-03-04T09:32:50.465Z,16.68
2016-03-04T09:33:50.514Z,16.65
2016-03-04T09:34:50.564Z,16.81
2016-03-04T09:35:50.614Z,16.78
2016-03-04T09:36:50.648Z,16.93
2016-03-04T09:37:50.713Z,16.93
2016-03-04T09:38:50.747Z,16.99
2016-03-04T09:39:50.813Z,16.97
2016-03-04T09:40:50.862Z,17.09
2016-03-04T09:41:50.911Z,17.11
2016-03-04T09:42:50.961Z,17.15
2016-03-04T09:43:51.026Z,17.14
2016-03-04T09:44:51.044Z,17.27
2016-03-04T09:45:51.125Z,17.26
2016-03-04T09:46:51.190Z,17.24
2016-03-04T09:47:51.224Z,17.33
2016-03-04T09:48:51.274Z,17.38
2016-03-04T09:49:51.215Z,17.34
2016-03-04T09:50:51.358Z,17.24
2016-03-04T09:51:51.407Z,17.33
2016-03-04T09:52:51.472Z,17.19
2016-03-04T09:53:51.522Z,17.26
2016-03-04T09:54:51.587Z,17.24
2016-03-04T09:55:51.605Z,17.31
2016-03-04T09:56:51.702Z,17.36
2016-03-04T09:57:51.736Z,17.31
2016-03-04T09:58:51.754Z,17.44
2016-03-04T09:59:51.835Z,17.42
2016-03-04T10:00:51.884Z,17.46
2016-03-04T10:01:51.918Z,17.38
2016-03-04T10:02:52.937Z,17.51
2016-03-04T10:03:52.033Z,17.45
2016-03-04T10:04:52.082Z,17.52
2016-03-04T10:05:52.133Z,17.46
2016-03-04T10:06:52.197Z,17.45
2016-03-04T10:07:52.231Z,17.6
2016-03-04T10:08:52.312Z,17.49
2016-03-04T10:09:52.361Z,17.6
2016-03-04T10:10:52.380Z,17.67
2016-03-04T10:11:52.445Z,17.67
2016-03-04T10:12:52.479Z,17.57
2016-03-04T10:13:52.357Z,17.56
2016-03-04T10:14:52.594Z,17.74
2016-03-04T10:15:52.627Z,17.74
2016-03-04T10:16:52.678Z,17.74
2016-03-04T10:17:52.727Z,17.78
2016-03-04T10:18:52.792Z,17.82
2016-03-04T10:19:53.280Z,17.71
2016-03-04T10:20:52.891Z,17.83
2016-03-04T10:21:52.940Z,17.83
2016-03-04T10:22:52.975Z,17.76
2016-03-04T10:23:53.040Z,17.86
2016-03-04T10:24:53.105Z,17.8
2016-03-04T10:25:53.154Z,17.79
2016-03-04T10:26:53.173Z,17.8
2016-03-04T10:27:53.254Z,17.8
2016-03-04T10:28:53.303Z,17.78
2016-03-04T10:29:53.353Z,17.83
2016-03-04T10:30:53.370Z,17.79
2016-03-04T10:31:53.453Z,17.8
2016-03-04T10:32:53.517Z,17.82
2016-03-04T10:33:53.551Z,17.83
2016-03-04T10:34:53.601Z,17.86
2016-03-04T10:35:53.681Z,17.86
2016-03-04T10:36:53.700Z,17.86
2016-03-04T10:37:53.734Z,17.87
2016-03-04T10:38:53.814Z,17.87
2016-03-04T10:39:53.864Z,17.87
2016-03-04T10:40:53.914Z,17.95
2016-03-04T10:41:53.963Z,17.95
2016-03-04T10:42:53.997Z,17.95
2016-03-04T10:43:53.296Z,17.95
2016-03-04T10:44:54.113Z,18.03
2016-03-04T10:45:54.146Z,17.92
2016-03-04T10:46:54.226Z,17.98
2016-03-04T10:47:54.261Z,17.94
2016-03-04T10:48:54.310Z,18
2016-03-04T10:49:54.376Z,18.05
2016-03-04T10:50:54.410Z,18.01
2016-03-04T10:51:54.460Z,17.98
2016-03-04T10:52:54.509Z,18.04
2016-03-04T10:53:54.558Z,17.78
2016-03-04T10:54:54.592Z,17.6
2016-03-04T10:55:54.673Z,17.63
2016-03-04T10:56:54.707Z,17.65
2016-03-04T10:57:54.773Z,17.6
2016-03-04T10:58:54.821Z,17.74
2016-03-04T10:59:54.855Z,17.74
2016-03-04T11:00:54.921Z,17.78
2016-03-04T11:01:54.845Z,17.8
2016-03-04T11:02:55.035Z,17.83
2016-03-04T11:03:55.070Z,17.9
2016-03-04T11:04:55.120Z,17.86
2016-03-04T11:05:55.200Z,17.9
2016-03-04T11:06:55.217Z,17.92
2016-03-04T11:07:55.300Z,18.03
2016-03-04T11:08:55.333Z,18.03
2016-03-04T11:09:55.382Z,18.15
2016-03-04T11:10:55.464Z,18.08
2016-03-04T11:11:55.466Z,18.16
2016-03-04T11:12:55.547Z,18.07
2016-03-04T11:13:55.581Z,18.1
2016-03-04T11:14:55.630Z,18.16
2016-03-04T11:15:55.742Z,18.15
2016-03-04T11:16:55.729Z,18.15
2016-03-04T11:17:55.779Z,18.07
2016-03-04T11:18:55.844Z,18.2
2016-03-04T11:19:55.877Z,18.19
2016-03-04T11:20:55.944Z,18.25
2016-03-04T11:21:55.977Z,18.26
2016-03-04T11:22:56.026Z,18.19
2016-03-04T11:23:56.108Z,18.18
2016-03-04T11:24:56.157Z,18.23
2016-03-04T11:25:56.191Z,18.2
2016-03-04T11:26:56.365Z,18.26
2016-03-04T11:27:56.322Z,18.28
2016-03-04T11:28:56.356Z,18.26
2016-03-04T11:29:56.404Z,18.25
2016-03-04T11:30:56.470Z,18.28
2016-03-04T11:31:56.520Z,18.22
2016-03-04T11:32:56.537Z,18.26
2016-03-04T11:33:56.603Z,18.25
2016-03-04T11:34:56.668Z,18.26
2016-03-04T11:35:56.718Z,18.23
2016-03-04T11:36:56.752Z,18.28
2016-03-04T11:37:56.817Z,18.28
2016-03-04T11:38:56.898Z,18.34
2016-03-04T11:39:56.900Z,18.29
2016-03-04T11:40:56.981Z,18.4
2016-03-04T11:41:57.031Z,18.34
2016-03-04T11:42:57.081Z,18.28
2016-03-04T11:43:57.114Z,18.34
2016-03-04T11:44:57.163Z,18.37
2016-03-04T11:45:57.214Z,18.34
2016-03-04T11:46:57.279Z,18.33
2016-03-04T11:47:57.328Z,18.37
2016-03-04T11:48:57.394Z,18.41
2016-03-04T11:49:57.444Z,18.38
2016-03-04T11:50:57.477Z,18.4
2016-03-04T11:51:57.526Z,18.43
2016-03-04T11:52:57.592Z,18.38
2016-03-04T11:53:57.626Z,18.41
2016-03-04T11:54:57.675Z,18.44
2016-03-04T11:55:57.740Z,18.38
2016-03-04T11:56:57.806Z,18.4
2016-03-04T11:57:57.824Z,18.34
2016-03-04T11:58:57.889Z,18.5
2016-03-04T11:59:57.939Z,18.45
2016-03-04T12:00:57.973Z,18.31
2016-03-04T12:01:58.053Z,18.28
2016-03-04T12:02:58.134Z,18.19
2016-03-04T12:03:58.168Z,18.16
2016-03-04T12:04:58.187Z,18.01
2016-03-04T12:05:58.251Z,17.94
2016-03-04T12:06:58.301Z,17.8
2016-03-04T12:07:58.350Z,17.92
2016-03-04T12:08:58.400Z,17.79
2016-03-04T12:09:58.450Z,17.78
2016-03-04T12:10:58.484Z,17.59
2016-03-04T12:11:58.549Z,17.67
2016-03-04T12:12:58.599Z,17.59
2016-03-04T12:13:58.664Z,17.46
2016-03-04T12:14:58.697Z,17.49
2016-03-04T12:15:58.763Z,17.48
2016-03-04T12:16:58.828Z,17.45
2016-03-04T12:17:58.847Z,17.39
2016-03-04T12:18:58.896Z,17.46
2016-03-04T12:19:58.961Z,17.38
2016-03-04T12:20:59.011Z,17.36
2016-03-04T12:21:59.060Z,17.46
2016-03-04T12:22:59.141Z,17.42
2016-03-04T12:23:59.174Z,17.42
2016-03-04T12:24:59.194Z,17.44
2016-03-04T12:25:59.274Z,17.44
2016-03-04T12:26:59.323Z,17.39
2016-03-04T12:27:59.374Z,17.44
2016-03-04T12:28:59.407Z,17.41
2016-03-04T12:29:59.473Z,17.41
2016-03-04T12:30:59.537Z,17.38
2016-03-04T12:31:59.572Z,17.36
2016-03-04T12:32:59.606Z,17.42
2016-03-04T12:33:59.686Z,17.41
2016-03-04T12:34:59.737Z,17.31
2016-03-04T12:35:59.769Z,17.33
2016-03-04T12:36:59.835Z,17.39
2016-03-04T12:37:59.869Z,17.45
2016-03-04T12:38:59.934Z,17.45
2016-03-04T12:40:00.000Z,17.45
2016-03-04T12:41:00.017Z,17.48
2016-03-04T12:42:00.114Z,17.56
2016-03-04T12:43:00.163Z,17.65
2016-03-04T12:44:00.183Z,17.57
2016-03-04T12:45:00.247Z,17.74
2016-03-04T12:46:00.328Z,17.82
2016-03-04T12:47:00.393Z,17.79
2016-03-04T12:48:00.443Z,17.78
2016-03-04T12:49:00.461Z,17.79
2016-03-04T12:50:00.526Z,17.89
2016-03-04T12:51:00.560Z,18
2016-03-04T12:52:00.641Z,17.98
2016-03-04T12:53:00.660Z,18.01
2016-03-04T12:54:00.693Z,18
2016-03-04T12:55:00.758Z,18.07
2016-03-04T12:56:00.824Z,18.07